createdAt,value
2019-01-15T00:00:44.617Z,0.10
2019-01-15T00:03:13.269Z,0.20
2019-01-15T00:05:41.945Z,0.20
2019-01-15T00:08:10.393Z,0.20
2019-01-15T00:10:39.160Z,0.20
2019-01-15T00:13:07.656Z,0.20
2019-01-15T00:15:36.114Z,0.20
2019-01-15T00:18:04.777Z,0.20
2019-01-15T00:20:33.408Z,0.20
2019-01-15T00:23:01.951Z,0.20
2019-01-15T00:25:30.475Z,0.10
2019-01-15T00:27:59.670Z,0.10
2019-01-15T00:30:28.263Z,0.10
2019-01-15T00:32:56.858Z,-0.10
2019-01-15T00:35:25.700Z,-0.20
2019-01-15T00:38:02.163Z,-0.20
2019-01-15T00:40:30.713Z,-0.30
2019-01-15T00:42:59.233Z,-0.40
2019-01-15T00:45:27.760Z,-0.40
2019-01-15T00:47:56.386Z,-0.40
2019-01-15T00:50:24.901Z,-0.50
2019-01-15T00:52:53.449Z,-0.60
2019-01-15T00:55:22.109Z,-0.50
2019-01-15T00:57:50.624Z,-0.50
2019-01-15T01:00:21.765Z,-0.40
2019-01-15T01:02:51.273Z,-0.40
2019-01-15T01:05:20.264Z,-0.40
2019-01-15T01:07:48.954Z,-0.30
2019-01-15T01:10:17.968Z,-0.20
2019-01-15T01:12:46.625Z,-0.10
2019-01-15T01:15:16.910Z,-0.10
2019-01-15T01:17:45.562Z,-0.10
2019-01-15T01:20:17.019Z,0.00
2019-01-15T01:22:45.597Z,0.00
2019-01-15T01:25:14.806Z,0.10
2019-01-15T01:27:43.325Z,0.10
2019-01-15T01:30:14.881Z,0.20
2019-01-15T01:32:43.352Z,0.10
2019-01-15T01:35:11.936Z,0.10
2019-01-15T01:37:40.445Z,0.10
2019-01-15T01:40:12.145Z,0.20
2019-01-15T01:42:40.734Z,0.20
2019-01-15T01:45:11.821Z,0.20
2019-01-15T01:47:40.358Z,0.20
2019-01-15T01:50:11.348Z,0.20
2019-01-15T01:52:40.037Z,0.20
2019-01-15T01:55:11.553Z,0.20
2019-01-15T01:57:40.137Z,0.20
2019-01-15T02:00:12.162Z,0.10
2019-01-15T02:02:40.808Z,0.20
2019-01-15T02:05:09.392Z,0.20
2019-01-15T02:07:37.909Z,0.20
2019-01-15T02:10:09.792Z,0.20
2019-01-15T02:12:38.387Z,0.20
2019-01-15T02:15:10.276Z,0.20
2019-01-15T02:17:39.260Z,0.20
2019-01-15T02:20:10.645Z,0.20
2019-01-15T02:22:39.157Z,0.30
2019-01-15T02:25:09.314Z,0.30
2019-01-15T02:27:39.538Z,0.30
2019-01-15T02:30:14.134Z,0.40
2019-01-15T02:32:42.735Z,0.40
2019-01-15T02:35:11.461Z,0.40
2019-01-15T02:37:40.069Z,0.40
2019-01-15T02:40:11.861Z,0.40
2019-01-15T02:42:46.490Z,0.40
2019-01-15T02:45:17.471Z,0.40
2019-01-15T02:47:46.662Z,0.40
2019-01-15T02:50:17.118Z,0.40
2019-01-15T02:52:45.729Z,0.40
2019-01-15T02:55:14.241Z,0.50
2019-01-15T02:57:42.831Z,0.50
2019-01-15T03:00:19.457Z,0.50
2019-01-15T03:02:47.973Z,0.50
2019-01-15T03:05:16.617Z,0.50
2019-01-15T03:07:45.242Z,0.50
2019-01-15T03:10:16.305Z,0.50
2019-01-15T03:12:54.469Z,0.40
2019-01-15T03:15:16.961Z,0.30
2019-01-15T03:17:45.630Z,0.20
2019-01-15T03:20:16.278Z,0.20
2019-01-15T03:22:45.175Z,0.10
2019-01-15T03:25:14.462Z,0.00
2019-01-15T03:27:43.030Z,-0.10
2019-01-15T03:30:14.810Z,-0.10
2019-01-15T03:32:43.439Z,-0.10
2019-01-15T03:35:12.025Z,-0.20
2019-01-15T03:37:40.665Z,-0.10
2019-01-15T03:40:15.027Z,-0.10
2019-01-15T03:42:43.542Z,-0.10
2019-01-15T03:45:12.259Z,0.00
2019-01-15T03:47:40.774Z,0.10
2019-01-15T03:50:10.233Z,0.10
2019-01-15T03:52:38.798Z,0.10
2019-01-15T03:55:09.887Z,0.10
2019-01-15T03:57:38.545Z,0.20
2019-01-15T04:00:21.746Z,0.20
2019-01-15T04:02:50.193Z,0.20
2019-01-15T04:05:19.055Z,0.30
2019-01-15T04:07:49.312Z,0.30
2019-01-15T04:10:17.969Z,0.40
2019-01-15T04:12:46.557Z,0.30
2019-01-15T04:15:15.193Z,0.20
2019-01-15T04:17:43.774Z,0.10
2019-01-15T04:20:16.667Z,0.10
2019-01-15T04:22:45.389Z,0.10
2019-01-15T04:25:15.009Z,0.00
2019-01-15T04:27:43.596Z,0.00
2019-01-15T04:30:15.214Z,0.00
2019-01-15T04:32:43.726Z,0.00
2019-01-15T04:35:12.513Z,0.10
2019-01-15T04:37:41.127Z,0.00
2019-01-15T04:40:18.180Z,0.00
2019-01-15T04:42:46.954Z,0.00
2019-01-15T04:45:20.162Z,-0.10
2019-01-15T04:47:48.823Z,-0.10
2019-01-15T04:50:17.841Z,-0.10
2019-01-15T04:52:47.996Z,-0.10
2019-01-15T04:55:16.586Z,-0.10
2019-01-15T04:57:45.218Z,-0.10
2019-01-15T05:00:21.783Z,-0.10
2019-01-15T05:02:50.872Z,-0.20
2019-01-15T05:05:19.389Z,-0.20
2019-01-15T05:07:47.910Z,-0.20
2019-01-15T05:10:17.057Z,-0.30
2019-01-15T05:12:45.666Z,-0.20
2019-01-15T05:15:18.145Z,-0.20
2019-01-15T05:17:46.771Z,-0.30
2019-01-15T05:20:18.632Z,-0.20
2019-01-15T05:22:47.233Z,-0.20
2019-01-15T05:25:20.632Z,-0.10
2019-01-15T05:27:49.493Z,0.00
2019-01-15T05:30:26.357Z,0.00
2019-01-15T05:32:54.941Z,0.00
2019-01-15T05:35:23.469Z,-0.10
2019-01-15T05:37:53.033Z,-0.10
2019-01-15T05:40:21.569Z,-0.10
2019-01-15T05:42:50.310Z,-0.30
2019-01-15T05:45:22.876Z,-0.30
2019-01-15T05:47:52.638Z,-0.30
2019-01-15T05:50:25.565Z,-0.30
2019-01-15T05:52:54.185Z,-0.20
2019-01-15T05:55:22.633Z,-0.20
2019-01-15T05:57:51.090Z,-0.20
2019-01-15T06:00:19.805Z,-0.20
2019-01-15T06:02:48.397Z,-0.20
2019-01-15T06:05:16.991Z,-0.30
2019-01-15T06:07:45.601Z,-0.30
2019-01-15T06:10:15.781Z,-0.20
2019-01-15T06:12:44.377Z,-0.10
2019-01-15T06:15:15.340Z,0.00
2019-01-15T06:17:43.786Z,0.10
2019-01-15T06:20:15.342Z,0.20
2019-01-15T06:22:43.885Z,0.10
2019-01-15T06:25:12.675Z,0.10
2019-01-15T06:27:41.802Z,0.20
2019-01-15T06:30:13.511Z,0.20
2019-01-15T06:32:42.029Z,0.20
2019-01-15T06:35:10.626Z,0.30
2019-01-15T06:37:39.316Z,0.40
2019-01-15T06:40:16.609Z,0.40
2019-01-15T06:42:45.298Z,0.50
2019-01-15T06:45:25.245Z,0.60
2019-01-15T06:47:53.856Z,0.60
2019-01-15T06:50:22.437Z,0.60
2019-01-15T06:52:51.033Z,0.60
2019-01-15T06:55:21.313Z,0.70
2019-01-15T06:57:49.897Z,0.70
2019-01-15T07:00:20.950Z,0.80
2019-01-15T07:02:49.561Z,0.80
2019-01-15T07:05:18.248Z,0.80
2019-01-15T07:07:46.769Z,0.80
2019-01-15T07:10:18.716Z,0.90
2019-01-15T07:12:47.158Z,0.90
2019-01-15T07:15:15.743Z,0.90
2019-01-15T07:17:44.276Z,0.90
2019-01-15T07:20:15.464Z,0.90
2019-01-15T07:22:44.053Z,1.00
2019-01-15T07:25:15.736Z,1.00
2019-01-15T07:27:44.317Z,1.00
2019-01-15T07:30:15.801Z,1.00
2019-01-15T07:32:44.421Z,1.00
2019-01-15T07:35:13.015Z,1.20
2019-01-15T07:37:41.604Z,1.20
2019-01-15T07:40:14.257Z,1.30
2019-01-15T07:42:43.346Z,1.30
2019-01-15T07:45:14.028Z,1.30
2019-01-15T07:47:42.762Z,1.30
2019-01-15T07:50:17.274Z,1.30
2019-01-15T07:52:45.864Z,1.30
2019-01-15T07:55:16.774Z,1.30
2019-01-15T07:57:45.358Z,1.30
2019-01-15T08:00:16.623Z,1.30
2019-01-15T08:02:45.240Z,1.30
2019-01-15T08:05:16.726Z,1.30
2019-01-15T08:07:45.172Z,1.30
2019-01-15T08:10:15.981Z,1.20
2019-01-15T08:12:44.565Z,1.30
2019-01-15T08:15:18.786Z,1.20
2019-01-15T08:17:47.473Z,1.20
2019-01-15T08:20:16.584Z,1.20
2019-01-15T08:22:45.242Z,1.30
2019-01-15T08:25:17.478Z,1.30
2019-01-15T08:27:45.934Z,1.30
2019-01-15T08:30:17.463Z,1.30
2019-01-15T08:32:46.015Z,1.30
2019-01-15T08:35:15.302Z,1.30
2019-01-15T08:37:43.818Z,1.40
2019-01-15T08:40:14.657Z,1.40
2019-01-15T08:42:43.177Z,1.40
2019-01-15T08:45:14.947Z,1.40
2019-01-15T08:47:48.255Z,1.40
2019-01-15T08:50:19.857Z,1.30
2019-01-15T08:52:48.450Z,1.30
2019-01-15T08:55:17.205Z,1.30
2019-01-15T08:57:45.828Z,1.30
2019-01-15T09:00:15.285Z,1.30
2019-01-15T09:02:44.064Z,1.30
2019-01-15T09:05:12.729Z,1.40
2019-01-15T09:07:41.322Z,1.40
2019-01-15T09:10:18.498Z,1.40
2019-01-15T09:12:47.281Z,1.40
2019-01-15T09:15:18.448Z,1.40
2019-01-15T09:17:47.133Z,1.40
2019-01-15T09:20:17.822Z,1.50
2019-01-15T09:22:46.537Z,1.50
2019-01-15T09:25:15.226Z,1.50
2019-01-15T09:27:43.885Z,1.50
2019-01-15T09:30:15.405Z,1.50
2019-01-15T09:32:44.047Z,1.40
2019-01-15T09:35:12.709Z,1.40
2019-01-15T09:37:41.426Z,1.40
2019-01-15T09:40:13.284Z,1.40
2019-01-15T09:42:41.869Z,1.40
2019-01-15T09:45:16.094Z,1.30
2019-01-15T09:47:49.551Z,1.30
2019-01-15T09:50:19.564Z,1.40
2019-01-15T09:52:48.889Z,1.50
2019-01-15T09:55:17.523Z,1.40
2019-01-15T09:57:46.120Z,1.50
2019-01-15T10:00:17.625Z,1.40
2019-01-15T10:02:46.434Z,1.50
2019-01-15T10:05:15.103Z,1.40
2019-01-15T10:07:43.687Z,1.50
2019-01-15T10:10:14.313Z,1.40
2019-01-15T10:12:42.897Z,1.40
2019-01-15T10:15:14.793Z,1.40
2019-01-15T10:17:43.265Z,1.50
2019-01-15T10:20:13.991Z,1.50
2019-01-15T10:22:42.620Z,1.50
2019-01-15T10:25:12.881Z,1.50
2019-01-15T10:27:41.969Z,1.60
2019-01-15T10:30:21.029Z,1.60
2019-01-15T10:32:55.428Z,1.70
2019-01-15T10:35:26.981Z,1.80
2019-01-15T10:37:55.442Z,1.90
2019-01-15T10:40:24.030Z,1.90
2019-01-15T10:42:52.589Z,2.00
2019-01-15T10:45:21.257Z,2.10
2019-01-15T10:47:49.786Z,2.20
2019-01-15T10:50:18.531Z,2.20
2019-01-15T10:52:47.051Z,2.30
2019-01-15T10:55:15.936Z,2.30
2019-01-15T10:57:44.477Z,2.40
2019-01-15T11:00:14.800Z,2.50
2019-01-15T11:02:43.430Z,2.60
2019-01-15T11:05:13.530Z,2.70
2019-01-15T11:07:42.887Z,2.60
2019-01-15T11:10:16.756Z,2.60
2019-01-15T11:12:45.361Z,2.60
2019-01-15T11:15:14.053Z,2.70
2019-01-15T11:17:42.638Z,2.70
2019-01-15T11:20:14.371Z,2.70
2019-01-15T11:22:42.959Z,2.60
2019-01-15T11:25:11.682Z,2.50
2019-01-15T11:27:40.349Z,2.50
2019-01-15T11:30:13.806Z,2.50
2019-01-15T11:32:42.328Z,2.60
2019-01-15T11:35:12.240Z,2.50
2019-01-15T11:37:40.769Z,2.50
2019-01-15T11:40:15.204Z,2.50
2019-01-15T11:42:44.001Z,2.50
2019-01-15T11:45:15.112Z,2.40
2019-01-15T11:47:44.093Z,2.50
2019-01-15T11:50:21.060Z,2.50
2019-01-15T11:52:50.000Z,2.60
2019-01-15T11:55:18.601Z,2.60
2019-01-15T11:57:47.623Z,2.70
2019-01-15T12:00:23.312Z,2.80
2019-01-15T12:02:59.567Z,2.90
2019-01-15T12:05:46.067Z,2.80
2019-01-15T12:08:32.902Z,2.90
2019-01-15T12:11:15.011Z,2.90
2019-01-15T12:14:01.433Z,2.90
2019-01-15T12:16:37.338Z,2.90
2019-01-15T12:19:16.578Z,2.90
2019-01-15T12:21:52.951Z,2.90
2019-01-15T12:24:23.140Z,2.80
2019-01-15T12:27:09.553Z,2.80
2019-01-15T12:29:56.165Z,2.80
2019-01-15T12:32:35.194Z,2.70
2019-01-15T12:35:15.551Z,2.70
2019-01-15T12:37:45.706Z,2.80
2019-01-15T12:40:16.982Z,2.80
2019-01-15T12:42:56.425Z,2.80
2019-01-15T12:45:35.684Z,2.80
2019-01-15T12:48:22.083Z,2.80
2019-01-15T12:50:58.076Z,2.80
2019-01-15T12:53:46.960Z,2.80
2019-01-15T12:56:19.909Z,2.80
2019-01-15T12:59:05.093Z,2.80
2019-01-15T13:01:37.962Z,2.80
2019-01-15T13:04:16.968Z,2.70
2019-01-15T13:06:49.994Z,2.70
2019-01-15T13:09:36.194Z,2.70
2019-01-15T13:12:22.485Z,2.70
2019-01-15T13:15:01.465Z,2.70
2019-01-15T13:17:37.538Z,2.80
2019-01-15T13:20:13.253Z,2.80
2019-01-15T13:22:52.567Z,2.80
2019-01-15T13:25:38.907Z,2.80
2019-01-15T13:28:09.214Z,2.80
2019-01-15T13:30:42.282Z,2.80
2019-01-15T13:33:18.478Z,2.70
2019-01-15T13:35:54.598Z,2.70
2019-01-15T13:38:42.710Z,2.70
2019-01-15T13:41:12.862Z,2.80
2019-01-15T13:43:58.969Z,2.70
2019-01-15T13:46:29.134Z,2.70
2019-01-15T13:49:02.353Z,2.70
2019-01-15T13:51:35.147Z,2.70
2019-01-15T13:54:11.398Z,2.70
2019-01-15T13:56:41.529Z,2.70
2019-01-15T13:59:28.113Z,2.70
2019-01-15T14:02:16.419Z,2.70
2019-01-15T14:05:02.670Z,2.70
2019-01-15T14:07:35.806Z,2.70
2019-01-15T14:10:25.173Z,2.60
2019-01-15T14:13:01.233Z,2.60
2019-01-15T14:15:31.393Z,2.60
2019-01-15T14:18:07.178Z,2.50
2019-01-15T14:20:37.405Z,2.50
2019-01-15T14:23:19.393Z,2.50
2019-01-15T14:25:52.057Z,2.50
2019-01-15T14:28:22.222Z,2.50
2019-01-15T14:31:10.464Z,2.50
2019-01-15T14:33:43.137Z,2.50
2019-01-15T14:36:19.069Z,2.50
2019-01-15T14:38:55.081Z,2.50
2019-01-15T14:41:41.461Z,2.40
2019-01-15T14:44:26.652Z,2.40
2019-01-15T14:47:13.217Z,2.40
2019-01-15T14:49:49.349Z,2.40
2019-01-15T14:52:19.537Z,2.40
2019-01-15T14:54:58.689Z,2.40
2019-01-15T14:57:28.937Z,2.40
2019-01-15T15:00:01.583Z,2.50
2019-01-15T15:02:37.508Z,2.40
2019-01-15T15:05:14.597Z,2.50
2019-01-15T15:07:50.854Z,2.40
2019-01-15T15:10:36.203Z,2.40
2019-01-15T15:13:09.570Z,2.50
2019-01-15T15:15:56.002Z,2.40
2019-01-15T15:18:37.914Z,2.50
2019-01-15T15:21:24.286Z,2.60
2019-01-15T15:23:54.427Z,2.60
2019-01-15T15:26:36.656Z,2.70
2019-01-15T15:29:06.919Z,2.70
2019-01-15T15:31:40.130Z,2.70
2019-01-15T15:34:26.621Z,2.70
2019-01-15T15:37:12.896Z,2.70
2019-01-15T15:39:43.154Z,2.70
2019-01-15T15:42:13.385Z,2.80
2019-01-15T15:44:49.365Z,2.70
2019-01-15T15:47:31.259Z,2.70
2019-01-15T15:50:07.467Z,2.70
2019-01-15T15:52:46.502Z,2.70
2019-01-15T15:55:19.809Z,2.70
2019-01-15T15:57:58.377Z,2.70
2019-01-15T16:00:31.484Z,2.70
2019-01-15T16:03:07.458Z,2.70
2019-01-15T16:05:37.579Z,2.70
2019-01-15T16:08:07.823Z,2.70
2019-01-15T16:10:54.434Z,2.70
2019-01-15T16:13:39.698Z,2.70
2019-01-15T16:16:19.201Z,2.70
2019-01-15T16:19:04.409Z,2.70
2019-01-15T16:21:34.598Z,2.70
2019-01-15T16:24:04.833Z,2.70
2019-01-15T16:26:40.758Z,2.70
2019-01-15T16:29:16.969Z,2.70
2019-01-15T16:31:49.838Z,2.70
2019-01-15T16:34:22.581Z,2.70
2019-01-15T16:36:55.566Z,2.80
2019-01-15T16:39:28.525Z,2.70
2019-01-15T16:41:58.686Z,2.80
2019-01-15T16:44:37.886Z,2.80
2019-01-15T16:47:08.043Z,2.80
2019-01-15T16:49:38.129Z,2.80
2019-01-15T16:52:11.073Z,2.80
2019-01-15T16:54:57.241Z,2.80
2019-01-15T16:57:27.360Z,2.90
2019-01-15T16:59:57.458Z,2.80
2019-01-15T17:02:30.505Z,2.90
2019-01-15T17:05:03.594Z,3.00
2019-01-15T17:07:33.757Z,3.00
2019-01-15T17:10:03.850Z,3.00
2019-01-15T17:12:49.830Z,3.00
2019-01-15T17:15:19.919Z,3.00
2019-01-15T17:17:59.303Z,3.00
2019-01-15T17:20:35.296Z,3.10
2019-01-15T17:23:08.200Z,3.10
2019-01-15T17:25:44.097Z,3.10
2019-01-15T17:28:14.286Z,3.10
2019-01-15T17:30:53.257Z,3.10
2019-01-15T17:33:39.149Z,3.00
2019-01-15T17:36:11.943Z,3.00
2019-01-15T17:38:51.155Z,3.00
2019-01-15T17:41:39.670Z,3.00
2019-01-15T17:44:18.809Z,3.00
2019-01-15T17:46:48.967Z,3.00
2019-01-15T17:49:22.038Z,3.00
2019-01-15T17:51:54.757Z,3.00
2019-01-15T17:54:41.258Z,3.00
2019-01-15T17:57:26.613Z,3.00
2019-01-15T18:00:13.053Z,3.00
2019-01-15T18:02:52.346Z,3.00
2019-01-15T18:05:37.849Z,3.00
2019-01-15T18:08:17.081Z,2.90
2019-01-15T18:10:50.042Z,2.90
2019-01-15T18:13:22.625Z,3.00
2019-01-15T18:15:52.784Z,3.00
2019-01-15T18:18:39.259Z,3.00
2019-01-15T18:21:12.509Z,2.90
2019-01-15T18:23:42.673Z,3.00
2019-01-15T18:26:24.630Z,3.00
2019-01-15T18:29:03.423Z,3.00
2019-01-15T18:31:36.519Z,3.00
2019-01-15T18:34:15.573Z,3.00
2019-01-15T18:37:01.968Z,3.00
2019-01-15T18:39:32.063Z,3.10
2019-01-15T18:42:18.490Z,3.10
2019-01-15T18:44:48.619Z,3.10
2019-01-15T18:47:21.469Z,3.20
2019-01-15T18:50:06.218Z,3.20
2019-01-15T18:52:54.589Z,3.20
2019-01-15T18:55:41.057Z,3.30
2019-01-15T18:58:11.290Z,3.30
2019-01-15T19:00:54.118Z,3.40
2019-01-15T19:03:30.121Z,3.40
2019-01-15T19:06:00.230Z,3.40
2019-01-15T19:08:30.458Z,3.50
2019-01-15T19:11:16.650Z,3.60
2019-01-15T19:13:46.813Z,3.70
2019-01-15T19:16:32.213Z,3.70
2019-01-15T19:19:18.703Z,3.80
2019-01-15T19:21:51.471Z,3.80
2019-01-15T19:24:21.574Z,3.90
2019-01-15T19:26:54.787Z,4.00
2019-01-15T19:29:40.148Z,4.10
2019-01-15T19:32:10.798Z,4.10
2019-01-15T19:34:53.832Z,4.20
2019-01-15T19:37:23.971Z,4.30
2019-01-15T19:40:10.297Z,4.30
2019-01-15T19:42:49.413Z,4.30
2019-01-15T19:45:21.282Z,4.40
2019-01-15T19:48:11.016Z,4.40
2019-01-15T19:50:41.218Z,4.50
2019-01-15T19:53:11.319Z,4.60
2019-01-15T19:55:41.430Z,4.70
2019-01-15T19:58:11.593Z,4.70
2019-01-15T20:00:57.923Z,4.80
2019-01-15T20:03:28.034Z,4.90
2019-01-15T20:06:04.018Z,4.90
2019-01-15T20:08:34.209Z,5.00
2019-01-15T20:11:06.899Z,5.00
2019-01-15T20:13:37.069Z,5.00
2019-01-15T20:16:12.800Z,5.10
2019-01-15T20:18:59.439Z,5.20
2019-01-15T20:21:46.036Z,5.20
2019-01-15T20:24:19.370Z,5.30
2019-01-15T20:26:55.280Z,5.30
2019-01-15T20:29:34.582Z,5.30
2019-01-15T20:32:07.765Z,5.30
2019-01-15T20:34:50.113Z,5.40
2019-01-15T20:37:20.310Z,5.40
2019-01-15T20:39:53.578Z,5.40
2019-01-15T20:42:40.234Z,5.50
2019-01-15T20:45:27.390Z,5.50
2019-01-15T20:48:12.365Z,5.50
2019-01-15T20:50:48.233Z,5.50
2019-01-15T20:53:18.420Z,5.60
2019-01-15T20:56:00.458Z,5.70
2019-01-15T20:58:45.533Z,5.70
2019-01-15T21:01:24.618Z,5.70
2019-01-15T21:04:11.249Z,5.80
2019-01-15T21:06:44.065Z,5.80
2019-01-15T21:09:20.073Z,5.90
2019-01-15T21:11:50.159Z,5.90
2019-01-15T21:14:32.393Z,5.90
2019-01-15T21:17:11.061Z,5.90
2019-01-15T21:19:50.281Z,5.90
2019-01-15T21:22:23.114Z,5.90
2019-01-15T21:24:59.328Z,5.90
2019-01-15T21:27:38.569Z,5.90
2019-01-15T21:30:14.661Z,6.00
2019-01-15T21:33:01.233Z,6.00
2019-01-15T21:35:46.209Z,5.90
2019-01-15T21:38:22.257Z,6.00
2019-01-15T21:40:55.349Z,6.00
2019-01-15T21:43:37.777Z,6.00
2019-01-15T21:46:10.925Z,6.00
2019-01-15T21:48:55.994Z,6.10
2019-01-15T21:51:26.159Z,6.00
2019-01-15T21:54:05.122Z,6.10
2019-01-15T21:56:35.233Z,6.00
2019-01-15T21:59:05.388Z,6.10
2019-01-15T22:01:41.078Z,6.10
2019-01-15T22:04:11.164Z,6.10
2019-01-15T22:06:56.478Z,6.20
2019-01-15T22:09:42.547Z,6.20
2019-01-15T22:12:15.258Z,6.20
2019-01-15T22:15:03.697Z,6.20
2019-01-15T22:17:33.819Z,6.20
2019-01-15T22:20:21.752Z,6.20
2019-01-15T22:23:06.509Z,6.30
2019-01-15T22:25:51.360Z,6.30
2019-01-15T22:28:37.625Z,6.30
2019-01-15T22:31:10.533Z,6.30
2019-01-15T22:33:43.475Z,6.30
2019-01-15T22:36:19.119Z,6.30
2019-01-15T22:38:51.889Z,6.30
2019-01-15T22:41:38.157Z,6.40
2019-01-15T22:44:10.789Z,6.40
2019-01-15T22:46:46.309Z,6.40
2019-01-15T22:49:16.530Z,6.40
2019-01-15T22:51:49.644Z,6.40
2019-01-15T22:54:22.821Z,6.40
2019-01-15T22:57:04.885Z,6.40
2019-01-15T22:59:51.093Z,6.40
2019-01-15T23:05:26.700Z,6.50
2019-01-15T23:07:59.286Z,6.40
2019-01-15T23:10:45.825Z,6.40
2019-01-15T23:13:18.705Z,6.40
2019-01-15T23:15:48.933Z,6.40
2019-01-15T23:18:19.192Z,6.40
2019-01-15T23:21:01.434Z,6.40
2019-01-15T23:23:59.206Z,6.50
2019-01-15T23:26:32.213Z,6.50
2019-01-15T23:29:17.102Z,6.50
2019-01-15T23:31:53.243Z,6.40
2019-01-15T23:34:29.335Z,6.40
2019-01-15T23:37:11.266Z,6.50
2019-01-15T23:39:44.033Z,6.40
2019-01-15T23:42:30.594Z,6.40
2019-01-15T23:45:15.549Z,6.50
2019-01-15T23:47:45.633Z,6.50
2019-01-15T23:50:21.474Z,6.50
2019-01-15T23:53:09.494Z,6.50
2019-01-15T23:55:48.424Z,6.50
2019-01-15T23:58:18.518Z,6.60
